Time;durP1;ratioP1;P1;durP2;ratioP2;P2;SDS_P1;SDS_P2;PMS_P1;PMS_P2;Temp;Humidity;BMP_temperature;BMP_pressure;BME280_temperature;BME280_humidity;BME280_pressure;Samples;Min_cycle;Max_cycle;Signal;HPM_P1;HPM_P2
2021/12/10 00:01:05;;;;;;;8.03;6.27;;;3.70;99.90;;;;;;5056321;28;20183;-78
2021/12/10 00:03:37;;;;;;;6.80;5.57;;;3.70;99.90;;;;;;5056300;28;20209;-78
2021/12/10 00:06:11;;;;;;;9.23;6.93;;;3.70;99.90;;;;;;5055972;28;20211;-78
2021/12/10 00:08:40;;;;;;;8.87;6.33;;;3.70;99.90;;;;;;5056303;28;20164;-78
2021/12/10 00:11:17;;;;;;;8.83;6.20;;;3.70;99.90;;;;;;5038049;28;20559;-78
2021/12/10 00:13:45;;;;;;;11.80;6.07;;;3.70;99.90;;;;;;5056312;28;20171;-78
2021/12/10 00:16:12;;;;;;;9.07;6.77;;;3.70;99.90;;;;;;5037478;28;20565;-78
2021/12/10 00:18:41;;;;;;;8.93;6.47;;;3.70;99.90;;;;;;5038046;28;20214;-78
2021/12/10 00:21:07;;;;;;;10.63;7.33;;;3.70;99.90;;;;;;5038497;28;20188;-78
2021/12/10 00:23:33;;;;;;;8.73;6.87;;;3.70;99.90;;;;;;5038148;28;20195;-78
2021/12/10 00:26:01;;;;;;;9.53;6.70;;;3.70;99.90;;;;;;5055849;28;20207;-78
2021/12/10 00:28:33;;;;;;;7.43;6.07;;;3.70;99.90;;;;;;5060412;28;20180;-77
2021/12/10 00:31:16;;;;;;;9.07;6.33;;;3.70;99.90;;;;;;5055879;28;20556;-78
2021/12/10 00:33:58;;;;;;;11.57;7.13;;;3.70;99.90;;;;;;5056058;28;20164;-78
2021/12/10 00:36:24;;;;;;;10.43;7.13;;;3.70;99.90;;;;;;5055126;28;20218;-78
2021/12/10 00:38:51;;;;;;;10.43;7.03;;;3.70;99.90;;;;;;5055382;28;20241;-78
2021/12/10 00:41:18;;;;;;;11.23;7.07;;;3.80;99.90;;;;;;5055621;28;20561;-78
2021/12/10 00:43:44;;;;;;;13.90;6.80;;;3.80;99.90;;;;;;5037509;28;20179;-77
2021/12/10 00:46:10;;;;;;;11.60;7.03;;;3.80;99.90;;;;;;5054857;28;20258;-78
2021/12/10 00:48:37;;;;;;;9.83;6.90;;;3.80;99.90;;;;;;5037209;28;20183;-78
2021/12/10 00:51:05;;;;;;;9.47;7.43;;;3.80;99.90;;;;;;5055277;28;20183;-78
2021/12/10 00:53:31;;;;;;;10.57;7.20;;;3.80;99.90;;;;;;5054660;28;20534;-77
2021/12/10 00:55:57;;;;;;;13.00;7.40;;;3.80;99.90;;;;;;5055052;28;20196;-77
2021/12/10 00:58:24;;;;;;;8.83;6.40;;;3.80;99.90;;;;;;5037040;28;20615;-77
2021/12/10 01:00:54;;;;;;;9.97;6.77;;;3.80;99.90;;;;;;5055317;28;20187;-78
2021/12/10 01:03:25;;;;;;;9.50;7.10;;;3.80;99.90;;;;;;5055169;28;20279;-78
2021/12/10 01:05:55;;;;;;;9.03;6.70;;;3.80;99.90;;;;;;5054949;28;20188;-78
2021/12/10 01:08:21;;;;;;;8.43;7.00;;;3.80;99.90;;;;;;5054843;28;20658;-78
2021/12/10 01:10:53;;;;;;;11.53;6.70;;;3.80;99.90;;;;;;5036943;28;20191;-78
2021/12/10 01:13:25;;;;;;;12.30;7.53;;;3.80;99.90;;;;;;5036998;28;20187;-78
2021/12/10 01:24:18;;;;;;;9.13;7.07;;;3.80;99.90;;;;;;5054951;28;20566;-78
2021/12/10 01:29:19;;;;;;;14.27;6.80;;;3.80;99.90;;;;;;5055260;28;20191;-78
2021/12/10 01:31:45;;;;;;;11.13;7.57;;;3.80;99.90;;;;;;5055264;28;20204;-78
2021/12/10 01:34:14;;;;;;;9.20;6.80;;;3.80;99.90;;;;;;5036877;28;20278;-78
2021/12/10 01:36:41;;;;;;;8.17;6.03;;;3.80;99.90;;;;;;5036604;28;20204;-77
2021/12/10 01:39:11;;;;;;;9.47;6.83;;;3.80;99.90;;;;;;5036301;28;20206;-78
2021/12/10 01:41:40;;;;;;;11.30;6.37;;;3.70;99.90;;;;;;5054577;28;20190;-78
2021/12/10 01:44:15;;;;;;;10.50;5.73;;;3.70;99.90;;;;;;5036736;28;20721;-77
2021/12/10 01:46:44;;;;;;;8.90;6.27;;;3.60;99.90;;;;;;5054636;28;20199;-78
2021/12/10 01:49:12;;;;;;;9.10;6.07;;;3.60;99.90;;;;;;5054255;28;20192;-78
2021/12/10 01:51:41;;;;;;;10.77;6.17;;;3.60;99.90;;;;;;5054337;28;20184;-78
2021/12/10 01:54:23;;;;;;;10.67;6.10;;;3.50;99.90;;;;;;5054679;28;20275;-78
2021/12/10 01:56:51;;;;;;;11.03;6.90;;;3.50;99.90;;;;;;5036583;28;20207;-78
2021/12/10 01:59:19;;;;;;;8.97;6.17;;;3.50;99.90;;;;;;5053858;28;20210;-78
2021/12/10 02:01:50;;;;;;;9.07;5.20;;;3.50;99.90;;;;;;5058249;28;20559;-77
2021/12/10 02:04:20;;;;;;;9.47;5.97;;;3.50;99.90;;;;;;5043117;28;20207;-78
2021/12/10 02:06:46;;;;;;;8.70;5.80;;;3.40;99.90;;;;;;5060141;28;20226;-78
2021/12/10 02:09:13;;;;;;;8.33;5.77;;;3.40;99.90;;;;;;5035738;28;20191;-78
2021/12/10 02:11:38;;;;;;;9.43;5.90;;;3.40;99.90;;;;;;5036098;28;20199;-77
2021/12/10 02:14:04;;;;;;;10.13;5.90;;;3.40;99.90;;;;;;5055057;28;20251;-78
2021/12/10 02:18:58;;;;;;;11.23;6.27;;;3.30;99.90;;;;;;5072831;28;20227;-78
2021/12/10 02:21:26;;;;;;;10.57;5.30;;;3.30;99.90;;;;;;5058299;28;20232;-78
2021/12/10 02:23:57;;;;;;;10.40;5.70;;;3.20;99.90;;;;;;5076625;28;20213;-77
2021/12/10 02:26:30;;;;;;;9.50;5.83;;;3.20;99.90;;;;;;5057443;28;20563;-77
2021/12/10 02:28:56;;;;;;;10.50;5.33;;;3.20;99.90;;;;;;5055671;28;20274;-77
2021/12/10 02:31:23;;;;;;;8.70;5.20;;;3.20;99.90;;;;;;5055925;28;20202;-78
2021/12/10 02:33:48;;;;;;;8.83;5.10;;;3.10;99.90;;;;;;5038314;28;20676;-77
2021/12/10 02:36:14;;;;;;;7.90;4.70;;;3.10;99.90;;;;;;5056605;28;20221;-78
2021/12/10 02:38:42;;;;;;;9.77;5.70;;;3.10;99.90;;;;;;5055902;28;20218;-76
2021/12/10 02:41:07;;;;;;;11.63;5.17;;;3.10;99.90;;;;;;5055829;28;20179;-77
2021/12/10 02:43:33;;;;;;;11.93;5.13;;;3.00;99.90;;;;;;5055498;28;20576;-77
2021/12/10 02:45:59;;;;;;;8.70;4.87;;;3.00;99.90;;;;;;5037846;28;20183;-78
2021/12/10 02:48:25;;;;;;;9.60;5.37;;;3.00;99.90;;;;;;5037311;28;20780;-77
2021/12/10 02:50:53;;;;;;;7.10;4.53;;;3.00;99.90;;;;;;5055812;28;20176;-77
2021/12/10 02:53:24;;;;;;;9.00;4.60;;;3.00;99.90;;;;;;5037486;28;20179;-77
2021/12/10 02:55:50;;;;;;;8.60;4.97;;;2.90;99.90;;;;;;5055777;28;20156;-77
2021/12/10 02:58:16;;;;;;;6.33;3.93;;;2.90;99.90;;;;;;5055146;28;20564;-77
2021/12/10 03:00:53;;;;;;;8.20;4.80;;;2.90;99.90;;;;;;5036941;28;20278;-77
2021/12/10 03:03:19;;;;;;;6.67;4.33;;;2.90;99.90;;;;;;5038345;28;20698;-78
2021/12/10 03:05:45;;;;;;;11.90;4.60;;;2.90;99.90;;;;;;5055973;28;20217;-77
2021/12/10 03:08:11;;;;;;;10.10;4.60;;;2.80;99.90;;;;;;5037044;28;20203;-77
2021/12/10 03:10:37;;;;;;;7.20;4.07;;;2.80;99.90;;;;;;5055543;28;20182;-78
2021/12/10 03:13:05;;;;;;;7.30;4.10;;;2.80;99.90;;;;;;5055439;28;20544;-77
2021/12/10 03:15:30;;;;;;;11.00;4.40;;;2.80;99.90;;;;;;5055473;28;20187;-77
2021/12/10 03:17:57;;;;;;;6.73;4.07;;;2.80;99.90;;;;;;5058372;28;20215;-77
2021/12/10 03:20:28;;;;;;;10.47;3.60;;;2.80;99.90;;;;;;5059761;28;20176;-77
2021/12/10 03:22:54;;;;;;;5.87;3.47;;;2.70;99.90;;;;;;5059782;28;20243;-77
2021/12/10 03:25:20;;;;;;;10.97;3.83;;;2.70;99.90;;;;;;5059101;28;20223;-77
2021/12/10 03:27:47;;;;;;;11.27;3.87;;;2.70;99.90;;;;;;5040857;28;20204;-77
2021/12/10 03:30:17;;;;;;;10.60;3.60;;;2.70;99.90;;;;;;5059011;28;20183;-78
2021/12/10 03:32:44;;;;;;;8.90;3.17;;;2.70;99.90;;;;;;5058462;28;20196;-77
2021/12/10 03:35:15;;;;;;;10.70;3.53;;;2.70;99.90;;;;;;5059097;28;20673;-77
2021/12/10 03:37:45;;;;;;;6.43;3.33;;;2.70;99.90;;;;;;5040495;28;20207;-77
2021/12/10 03:40:13;;;;;;;7.40;3.23;;;2.70;99.90;;;;;;5058573;28;20662;-77
2021/12/10 03:42:39;;;;;;;11.47;3.53;;;2.70;99.90;;;;;;5058966;28;20179;-77
2021/12/10 03:45:06;;;;;;;9.73;3.03;;;2.70;99.90;;;;;;5058585;28;20187;-77
2021/12/10 03:47:32;;;;;;;9.00;2.80;;;2.70;99.90;;;;;;5058211;28;20191;-77
2021/12/10 03:49:58;;;;;;;6.23;2.50;;;2.60;99.90;;;;;;5058744;28;20184;-77
2021/12/10 03:52:23;;;;;;;7.03;3.00;;;2.60;99.90;;;;;;5040935;28;20187;-77
2021/12/10 03:54:49;;;;;;;13.70;2.90;;;2.60;99.90;;;;;;5059308;28;20175;-77
2021/12/10 03:57:17;;;;;;;8.80;2.33;;;2.60;99.90;;;;;;5058900;28;20264;-77
2021/12/10 03:59:43;;;;;;;5.50;2.03;;;2.60;99.90;;;;;;5059647;28;20203;-77
2021/12/10 04:02:09;;;;;;;10.67;2.63;;;2.60;99.90;;;;;;5059560;28;20249;-77
2021/12/10 04:04:46;;;;;;;9.50;2.67;;;2.60;99.90;;;;;;5041316;28;20176;-77
2021/12/10 04:07:24;;;;;;;6.87;2.67;;;2.60;99.90;;;;;;5058727;28;20215;-77
2021/12/10 04:09:51;;;;;;;9.20;2.23;;;2.60;99.90;;;;;;5059873;28;20160;-77
2021/12/10 04:12:17;;;;;;;6.20;2.43;;;2.60;99.90;;;;;;5040937;28;20283;-77
2021/12/10 04:14:46;;;;;;;10.37;2.20;;;2.60;99.90;;;;;;5059272;28;20183;-77
2021/12/10 04:17:12;;;;;;;8.27;2.37;;;2.60;99.90;;;;;;5058606;28;20558;-77
2021/12/10 04:19:39;;;;;;;6.53;2.30;;;2.60;99.90;;;;;;5041340;28;20199;-77
2021/12/10 04:22:07;;;;;;;5.93;2.30;;;2.60;99.90;;;;;;5040641;28;20179;-77
2021/12/10 04:24:35;;;;;;;10.63;2.73;;;2.60;99.90;;;;;;5058590;28;20666;-77
2021/12/10 04:27:06;;;;;;;7.53;2.23;;;2.60;99.90;;;;;;5040951;28;20203;-77
2021/12/10 04:29:33;;;;;;;8.87;2.10;;;2.60;99.90;;;;;;5040290;28;20192;-77
2021/12/10 04:31:58;;;;;;;6.93;1.97;;;2.60;99.90;;;;;;5041319;28;20673;-77
2021/12/10 04:34:25;;;;;;;11.10;2.33;;;2.60;99.90;;;;;;5059504;28;20191;-77
2021/12/10 04:36:54;;;;;;;8.47;2.10;;;2.60;99.90;;;;;;5059851;28;20747;-78
2021/12/10 04:39:20;;;;;;;4.40;1.60;;;2.60;99.90;;;;;;5057166;28;20200;-77
2021/12/10 04:41:46;;;;;;;12.20;1.87;;;2.60;99.90;;;;;;5059149;28;20182;-78
2021/12/10 04:44:12;;;;;;;8.03;2.00;;;2.70;99.90;;;;;;5059195;28;20179;-77
2021/12/10 04:46:38;;;;;;;8.33;1.87;;;2.70;99.90;;;;;;5041446;28;20557;-77
2021/12/10 04:49:08;;;;;;;5.30;1.97;;;2.70;99.90;;;;;;5058314;28;20182;-77
2021/12/10 04:51:40;;;;;;;6.70;1.60;;;2.70;99.90;;;;;;5059535;28;20270;-77
2021/12/10 04:54:08;;;;;;;7.83;2.03;;;2.70;99.90;;;;;;5041291;28;20202;-77
2021/12/10 04:56:34;;;;;;;9.67;1.77;;;2.70;99.90;;;;;;5040550;28;20187;-77
2021/12/10 04:59:01;;;;;;;6.80;1.40;;;2.70;99.90;;;;;;5059061;28;20217;-77
2021/12/10 05:01:28;;;;;;;11.27;2.07;;;2.70;99.90;;;;;;5059232;28;20171;-77
2021/12/10 05:03:54;;;;;;;5.87;1.60;;;2.70;99.90;;;;;;5059870;28;20187;-78
2021/12/10 05:06:20;;;;;;;7.30;2.07;;;2.80;99.90;;;;;;5040765;28;20195;-77
2021/12/10 05:08:46;;;;;;;7.93;1.80;;;2.70;99.90;;;;;;5057889;28;20203;-79
2021/12/10 05:11:12;;;;;;;3.20;1.30;;;2.80;99.90;;;;;;5039116;28;20192;-77
2021/12/10 05:13:41;;;;;;;7.73;1.90;;;2.80;99.90;;;;;;5037348;28;20658;-78
2021/12/10 05:16:08;;;;;;;4.70;1.80;;;2.80;99.90;;;;;;5037746;28;20549;-78
2021/12/10 05:18:38;;;;;;;11.20;2.30;;;2.80;99.90;;;;;;5051633;28;20214;-77
2021/12/10 05:21:09;;;;;;;5.50;1.57;;;2.80;99.90;;;;;;5058549;28;20179;-77
2021/12/10 05:23:35;;;;;;;5.53;1.50;;;2.80;99.90;;;;;;5060040;28;20189;-78
2021/12/10 05:26:01;;;;;;;15.43;1.93;;;2.80;99.90;;;;;;5059267;28;20222;-77
2021/12/10 05:28:27;;;;;;;8.20;1.80;;;2.80;99.90;;;;;;5041256;28;20208;-78
2021/12/10 05:30:55;;;;;;;7.77;1.60;;;2.80;99.90;;;;;;5042578;28;20187;-78
2021/12/10 05:33:22;;;;;;;8.50;1.80;;;2.90;99.90;;;;;;5043990;28;20180;-77
2021/12/10 05:35:48;;;;;;;9.83;2.07;;;2.90;99.90;;;;;;5057906;28;20176;-77
2021/12/10 05:38:18;;;;;;;4.43;1.50;;;2.80;99.90;;;;;;5038575;28;20207;-77
2021/12/10 05:40:46;;;;;;;8.93;2.27;;;2.80;99.90;;;;;;5054674;28;20261;-77
2021/12/10 05:43:12;;;;;;;11.40;1.87;;;2.90;99.90;;;;;;5055369;28;20625;-77
2021/12/10 05:45:38;;;;;;;4.60;2.03;;;2.90;99.90;;;;;;5037253;28;20210;-77
2021/12/10 05:48:04;;;;;;;6.67;1.60;;;2.90;99.90;;;;;;5036842;28;20265;-77
2021/12/10 05:50:31;;;;;;;6.20;1.87;;;2.80;99.90;;;;;;5055294;28;20176;-78
2021/12/10 05:52:57;;;;;;;10.40;2.83;;;2.90;99.90;;;;;;5056121;28;20183;-77
2021/12/10 05:55:24;;;;;;;12.57;2.43;;;2.90;99.90;;;;;;5038186;28;20195;-78
2021/12/10 05:57:50;;;;;;;8.50;1.87;;;2.90;99.90;;;;;;5056704;28;20210;-78
2021/12/10 06:00:26;;;;;;;5.20;2.03;;;2.80;99.90;;;;;;5057699;28;20278;-78
2021/12/10 06:02:51;;;;;;;6.37;2.03;;;2.80;99.90;;;;;;5056025;28;20155;-76
2021/12/10 06:05:18;;;;;;;9.63;2.83;;;2.90;99.90;;;;;;5037219;28;20210;-78
2021/12/10 06:07:43;;;;;;;9.63;2.03;;;2.80;99.90;;;;;;5055266;28;20187;-77
2021/12/10 06:10:12;;;;;;;8.77;2.53;;;2.80;99.90;;;;;;5055857;28;20191;-77
2021/12/10 06:12:37;;;;;;;6.43;2.27;;;2.80;99.90;;;;;;5056460;28;20657;-77
2021/12/10 06:15:05;;;;;;;9.27;2.87;;;2.80;99.90;;;;;;5056061;28;20180;-76
2021/12/10 06:17:30;;;;;;;4.53;2.33;;;2.80;99.90;;;;;;5055368;28;20586;-77
2021/12/10 06:19:56;;;;;;;11.43;2.90;;;2.80;99.90;;;;;;5037067;28;20209;-77
2021/12/10 06:22:22;;;;;;;8.97;2.57;;;2.80;99.90;;;;;;5037691;28;20215;-77
2021/12/10 06:24:47;;;;;;;7.97;2.10;;;2.70;99.90;;;;;;5054654;28;20544;-77
2021/12/10 06:27:13;;;;;;;7.60;2.20;;;2.80;99.90;;;;;;5037212;28;20257;-77
2021/12/10 06:29:41;;;;;;;7.07;2.33;;;2.80;99.90;;;;;;5055322;28;20179;-77
2021/12/10 06:32:09;;;;;;;8.50;2.27;;;2.80;99.90;;;;;;5037294;28;20585;-77
2021/12/10 06:34:35;;;;;;;7.40;2.00;;;2.80;99.90;;;;;;5037352;28;20206;-77
2021/12/10 06:37:01;;;;;;;11.47;2.83;;;2.70;99.90;;;;;;5037371;28;20573;-76
2021/12/10 06:39:26;;;;;;;6.87;2.03;;;2.70;99.90;;;;;;5054536;28;20207;-77
2021/12/10 06:41:54;;;;;;;6.37;2.47;;;2.70;99.90;;;;;;5055272;28;20211;-77
2021/12/10 06:44:20;;;;;;;8.57;2.40;;;2.70;99.90;;;;;;5055337;28;20646;-78
2021/12/10 06:46:47;;;;;;;4.33;2.27;;;2.80;99.90;;;;;;5055099;28;20179;-78
2021/12/10 06:49:13;;;;;;;8.03;2.43;;;2.80;99.90;;;;;;5056728;28;20201;-77
2021/12/10 06:51:39;;;;;;;7.27;2.40;;;2.80;99.90;;;;;;5058110;28;20217;-77
2021/12/10 06:54:04;;;;;;;7.30;2.27;;;2.70;99.90;;;;;;5042914;28;20601;-78
2021/12/10 06:56:32;;;;;;;6.47;2.27;;;2.80;99.90;;;;;;5059546;28;20546;-78
2021/12/10 06:58:59;;;;;;;11.17;2.53;;;2.70;99.90;;;;;;5040501;28;20206;-77
2021/12/10 07:01:28;;;;;;;9.30;2.63;;;2.80;99.90;;;;;;5058349;28;20250;-78
2021/12/10 07:03:56;;;;;;;10.70;2.37;;;2.70;99.90;;;;;;5040217;28;20558;-77
2021/12/10 07:06:24;;;;;;;6.43;2.00;;;2.70;99.90;;;;;;5040239;28;20187;-77
2021/12/10 07:08:50;;;;;;;13.33;2.67;;;2.70;99.90;;;;;;5040736;28;20226;-78
2021/12/10 07:11:19;;;;;;;4.90;1.63;;;2.70;99.90;;;;;;5058186;28;20183;-77
2021/12/10 07:13:49;;;;;;;4.43;1.60;;;2.70;99.90;;;;;;5058121;28;20176;-77
2021/12/10 07:16:17;;;;;;;9.23;2.30;;;2.80;99.90;;;;;;5058575;28;20256;-78
2021/12/10 07:18:43;;;;;;;4.67;1.70;;;2.70;99.90;;;;;;5057777;28;20218;-78
2021/12/10 07:21:09;;;;;;;4.40;2.17;;;2.80;99.90;;;;;;5057628;28;20171;-78
2021/12/10 07:23:37;;;;;;;8.43;2.00;;;2.80;99.90;;;;;;5058005;28;20646;-78
2021/12/10 07:26:04;;;;;;;8.77;3.17;;;2.70;99.90;;;;;;5057680;28;20549;-77
2021/12/10 07:28:30;;;;;;;12.20;2.90;;;2.70;99.90;;;;;;5039815;28;20199;-78
2021/12/10 07:30:56;;;;;;;6.40;2.10;;;2.70;99.90;;;;;;5056589;28;20657;-77
2021/12/10 07:33:22;;;;;;;8.20;2.60;;;2.70;99.90;;;;;;5040146;28;20202;-77
2021/12/10 07:35:49;;;;;;;5.20;2.07;;;2.70;99.90;;;;;;5039692;28;20184;-78
2021/12/10 07:38:16;;;;;;;8.90;2.23;;;2.70;99.90;;;;;;5039896;28;20207;-77
2021/12/10 07:40:44;;;;;;;4.83;1.90;;;2.70;99.90;;;;;;5057734;28;20540;-77
2021/12/10 07:43:10;;;;;;;12.87;2.50;;;2.80;99.90;;;;;;5057697;28;20562;-78
2021/12/10 07:45:36;;;;;;;7.17;1.83;;;2.80;99.90;;;;;;5057601;28;20260;-78
2021/12/10 07:48:08;;;;;;;8.43;1.73;;;2.80;99.90;;;;;;5058081;28;20661;-77
2021/12/10 07:50:39;;;;;;;6.27;1.93;;;2.80;99.90;;;;;;5040128;28;20186;-78
2021/12/10 07:53:05;;;;;;;7.80;2.00;;;2.80;99.90;;;;;;5058195;28;20156;-77
2021/12/10 07:55:33;;;;;;;6.13;1.93;;;2.80;99.90;;;;;;5057664;28;20186;-78
2021/12/10 07:58:02;;;;;;;7.00;1.60;;;2.80;99.90;;;;;;5057940;28;20270;-78
2021/12/10 08:00:31;;;;;;;5.47;1.77;;;2.80;99.90;;;;;;5058065;28;20684;-78
2021/12/10 08:02:56;;;;;;;7.20;1.93;;;2.90;99.90;;;;;;5057869;28;20335;-77
2021/12/10 08:05:23;;;;;;;9.43;1.40;;;2.90;99.90;;;;;;5057843;28;20200;-78
2021/12/10 08:07:50;;;;;;;5.73;1.50;;;2.90;99.90;;;;;;5057383;28;20682;-77
2021/12/10 08:10:16;;;;;;;9.53;2.80;;;2.90;99.90;;;;;;5057791;28;20167;-78
2021/12/10 08:12:42;;;;;;;5.23;1.47;;;3.00;99.90;;;;;;5057338;28;20216;-78
2021/12/10 08:15:08;;;;;;;10.90;1.80;;;3.00;99.90;;;;;;5057829;28;20179;-77
2021/12/10 08:17:35;;;;;;;5.93;1.77;;;3.00;99.90;;;;;;5059014;28;20223;-77
2021/12/10 08:20:03;;;;;;;4.03;1.57;;;3.10;99.90;;;;;;5040083;28;20577;-77
2021/12/10 08:22:29;;;;;;;5.97;2.20;;;3.10;99.90;;;;;;5057893;28;20228;-78
2021/12/10 08:24:55;;;;;;;9.53;1.70;;;3.10;99.90;;;;;;5057524;28;20543;-78
2021/12/10 08:27:21;;;;;;;8.87;2.07;;;3.10;99.90;;;;;;5057574;28;20195;-77
2021/12/10 08:29:48;;;;;;;8.23;2.10;;;3.10;99.90;;;;;;5057587;28;20190;-78
2021/12/10 08:32:19;;;;;;;7.53;1.87;;;3.20;99.90;;;;;;5039786;28;20179;-78
2021/12/10 08:34:45;;;;;;;8.93;2.73;;;3.20;99.90;;;;;;5057373;28;20152;-78
2021/12/10 08:37:11;;;;;;;4.00;1.70;;;3.20;99.90;;;;;;5057384;28;20203;-78
2021/12/10 08:39:37;;;;;;;7.77;2.00;;;3.30;99.90;;;;;;5057298;28;20262;-78
2021/12/10 08:42:04;;;;;;;4.97;1.77;;;3.30;99.90;;;;;;5039457;28;20188;-78
2021/12/10 08:44:31;;;;;;;9.30;2.37;;;3.30;99.90;;;;;;5058709;28;20176;-78
2021/12/10 08:46:57;;;;;;;5.60;1.60;;;3.30;99.90;;;;;;5040469;28;20226;-78
2021/12/10 08:49:22;;;;;;;6.93;1.97;;;3.30;99.90;;;;;;5041102;28;20192;-77
2021/12/10 08:51:52;;;;;;;7.13;1.60;;;3.40;99.90;;;;;;5038467;28;20184;-78
2021/12/10 08:54:19;;;;;;;5.60;2.03;;;3.40;99.90;;;;;;5056422;28;20267;-77
2021/12/10 08:56:46;;;;;;;10.87;1.80;;;3.40;99.90;;;;;;5038367;28;20191;-77
2021/12/10 08:59:14;;;;;;;8.47;2.07;;;3.50;99.90;;;;;;5056523;28;20210;-77
2021/12/10 09:01:45;;;;;;;6.67;1.97;;;3.40;99.90;;;;;;5056619;28;20298;-77
2021/12/10 09:04:12;;;;;;;5.07;1.63;;;3.40;99.90;;;;;;5038343;28;20634;-78
2021/12/10 09:06:42;;;;;;;6.37;1.83;;;3.40;99.90;;;;;;5056219;28;20245;-77
2021/12/10 09:09:10;;;;;;;7.13;2.03;;;3.50;99.90;;;;;;5038689;28;20567;-78
2021/12/10 09:11:38;;;;;;;4.10;1.90;;;3.50;99.90;;;;;;5056236;28;20242;-77
2021/12/10 09:14:06;;;;;;;7.93;2.10;;;3.50;99.90;;;;;;5055555;28;20199;-77
2021/12/10 09:16:32;;;;;;;9.20;1.90;;;3.50;99.90;;;;;;5038169;28;20244;-78
2021/12/10 09:19:02;;;;;;;7.37;1.80;;;3.60;99.90;;;;;;5056178;28;20260;-78
2021/12/10 09:21:29;;;;;;;4.20;1.60;;;3.60;99.90;;;;;;5037988;28;20649;-78
2021/12/10 09:24:00;;;;;;;8.33;1.83;;;3.60;99.90;;;;;;5055997;28;20182;-78
2021/12/10 09:26:27;;;;;;;8.60;1.70;;;3.70;99.90;;;;;;5056441;28;20165;-78
2021/12/10 09:28:54;;;;;;;6.33;1.67;;;3.80;99.90;;;;;;5038062;28;20287;-78
2021/12/10 09:31:24;;;;;;;5.97;1.80;;;3.80;99.90;;;;;;5056329;28;20285;-78
2021/12/10 09:33:51;;;;;;;4.53;1.53;;;3.90;99.90;;;;;;5037706;28;20609;-77
2021/12/10 09:36:17;;;;;;;7.50;1.60;;;3.90;99.90;;;;;;5052922;28;20192;-78
2021/12/10 09:38:44;;;;;;;3.77;1.17;;;4.00;99.90;;;;;;5054788;28;20304;-78
2021/12/10 09:41:10;;;;;;;8.50;1.63;;;4.10;99.90;;;;;;5053197;28;20179;-78
2021/12/10 09:43:37;;;;;;;5.60;1.60;;;4.10;99.90;;;;;;5036700;28;20188;-78
2021/12/10 09:46:04;;;;;;;4.43;1.70;;;4.10;99.90;;;;;;5054947;28;20196;-77
2021/12/10 09:48:31;;;;;;;6.03;1.67;;;4.20;99.90;;;;;;5036705;28;20216;-77
2021/12/10 09:51:09;;;;;;;10.67;1.90;;;4.20;99.90;;;;;;5037367;28;20199;-78
2021/12/10 09:53:37;;;;;;;5.47;2.00;;;4.20;99.90;;;;;;5044848;28;20188;-78
2021/12/10 09:56:03;;;;;;;8.00;2.20;;;4.20;99.90;;;;;;5050509;28;20294;-77
2021/12/10 09:58:29;;;;;;;4.07;1.33;;;4.20;99.90;;;;;;5036011;28;20253;-78
2021/12/10 10:01:00;;;;;;;7.57;2.00;;;4.20;99.90;;;;;;5047546;28;20187;-77
2021/12/10 10:03:31;;;;;;;4.17;1.50;;;4.20;99.90;;;;;;5049731;28;20201;-78
2021/12/10 10:05:57;;;;;;;5.03;1.50;;;4.20;99.90;;;;;;5049554;28;20188;-77
2021/12/10 10:08:25;;;;;;;6.00;2.23;;;4.30;99.90;;;;;;5033410;28;20214;-77
2021/12/10 10:10:55;;;;;;;6.87;1.97;;;4.20;99.90;;;;;;5051834;28;20265;-77
2021/12/10 10:13:26;;;;;;;5.07;1.60;;;4.30;99.90;;;;;;5053023;28;20531;-77
2021/12/10 10:15:56;;;;;;;9.20;1.93;;;4.30;99.90;;;;;;5051895;28;20267;-75
2021/12/10 10:18:22;;;;;;;6.60;1.63;;;4.30;99.90;;;;;;5050626;28;20219;-77
2021/12/10 10:20:54;;;;;;;10.33;2.00;;;4.30;99.90;;;;;;5037485;28;20179;-77
2021/12/10 10:23:20;;;;;;;6.50;2.20;;;4.30;99.90;;;;;;5052647;28;20559;-77
2021/12/10 10:25:52;;;;;;;7.67;1.40;;;4.30;99.90;;;;;;5051460;28;20257;-77
2021/12/10 10:28:18;;;;;;;8.30;2.80;;;4.30;99.90;;;;;;5052451;28;20192;-77
2021/12/10 10:30:58;;;;;;;5.43;4.00;;;4.30;99.90;;;;;;5052405;28;20187;-75
2021/12/10 10:33:24;;;;;;;10.63;2.37;;;4.30;99.90;;;;;;5055225;28;20194;-77
2021/12/10 10:35:54;;;;;;;3.53;1.77;;;4.30;99.90;;;;;;5034202;28;20195;-76
2021/12/10 10:38:20;;;;;;;6.57;1.87;;;4.30;99.90;;;;;;5050920;28;20257;-77
2021/12/10 10:40:52;;;;;;;3.47;1.70;;;4.30;99.90;;;;;;5047959;28;20561;-77
2021/12/10 10:43:18;;;;;;;6.23;1.70;;;4.30;99.90;;;;;;5033324;28;20164;-77
2021/12/10 10:45:45;;;;;;;7.50;1.60;;;4.30;99.90;;;;;;5033418;28;20195;-77
2021/12/10 10:48:13;;;;;;;5.30;1.90;;;4.30;99.90;;;;;;5053056;28;20569;-77
2021/12/10 10:50:51;;;;;;;4.73;1.73;;;4.30;99.90;;;;;;5052182;28;20260;-77
2021/12/10 10:53:19;;;;;;;4.53;1.53;;;4.30;99.90;;;;;;5054263;28;20187;-77
2021/12/10 10:56:18;;;;;;;8.00;1.67;;;4.30;99.90;;;;;;5035730;28;20187;-77
2021/12/10 10:58:50;;;;;;;3.17;1.47;;;4.30;99.90;;;;;;4999756;28;20258;-79
2021/12/10 11:01:24;;;;;;;5.63;1.60;;;4.30;99.90;;;;;;5035808;28;20199;-78
2021/12/10 11:04:13;;;;;;;4.40;1.80;;;4.40;99.90;;;;;;5036396;28;20175;-77
2021/12/10 11:06:45;;;;;;;4.87;1.53;;;4.40;99.90;;;;;;5051525;28;20188;-77
2021/12/10 11:09:21;;;;;;;6.20;1.60;;;4.40;99.90;;;;;;5052372;28;20183;-78
2021/12/10 11:11:54;;;;;;;2.90;1.37;;;4.40;99.90;;;;;;5052869;28;20187;-77
2021/12/10 11:14:28;;;;;;;3.07;1.30;;;4.50;99.90;;;;;;5053985;28;20200;-78
2021/12/10 11:17:03;;;;;;;5.33;2.00;;;4.50;99.90;;;;;;5053729;28;20688;-77
2021/12/10 11:19:30;;;;;;;8.60;1.70;;;4.50;99.90;;;;;;5052629;28;20214;-77
2021/12/10 11:22:03;;;;;;;6.07;1.63;;;4.50;99.90;;;;;;5036735;28;20737;-77
2021/12/10 11:24:38;;;;;;;6.33;1.37;;;4.60;99.90;;;;;;5053840;28;20306;-78
2021/12/10 11:27:09;;;;;;;5.37;1.27;;;4.60;99.90;;;;;;5036938;28;20553;-77
2021/12/10 11:29:51;;;;;;;4.43;1.60;;;4.60;99.90;;;;;;5051998;28;20568;-77
2021/12/10 11:32:32;;;;;;;4.63;1.40;;;4.60;99.90;;;;;;5053621;28;20200;-77
2021/12/10 11:35:25;;;;;;;1.83;1.30;;;4.70;99.90;;;;;;5053229;28;20679;-77
2021/12/10 11:37:54;;;;;;;4.60;1.40;;;4.70;99.90;;;;;;5037605;28;20265;-77
2021/12/10 11:40:33;;;;;;;5.87;1.33;;;4.80;99.90;;;;;;5037964;28;20261;-77
2021/12/10 11:43:16;;;;;;;6.30;1.90;;;4.80;99.90;;;;;;5036312;28;20270;-76
2021/12/10 11:45:51;;;;;;;5.67;1.30;;;4.80;99.90;;;;;;5055818;28;20194;-77
2021/12/10 11:48:26;;;;;;;7.73;1.40;;;4.90;99.90;;;;;;5055341;28;20229;-76
2021/12/10 11:51:20;;;;;;;8.03;1.40;;;4.90;99.90;;;;;;5055431;28;20183;-76
2021/12/10 11:53:50;;;;;;;4.93;1.47;;;5.00;99.90;;;;;;5018926;28;20657;-77
2021/12/10 11:56:21;;;;;;;2.93;1.03;;;5.00;99.90;;;;;;5037364;28;20187;-76
2021/12/10 11:59:07;;;;;;;4.03;1.40;;;5.00;99.90;;;;;;5037343;28;20211;-77
2021/12/10 12:01:46;;;;;;;7.20;1.70;;;5.10;99.90;;;;;;5036383;28;20227;-76
2021/12/10 12:04:22;;;;;;;4.20;1.17;;;5.10;99.90;;;;;;5055025;28;20270;-76
2021/12/10 12:07:07;;;;;;;2.60;1.20;;;5.20;99.90;;;;;;5052478;28;20206;-78
2021/12/10 12:09:39;;;;;;;2.47;1.00;;;5.20;99.90;;;;;;5053427;28;20287;-77
2021/12/10 12:12:10;;;;;;;3.77;1.07;;;5.20;99.90;;;;;;5056736;28;20261;-77
2021/12/10 12:14:36;;;;;;;4.67;1.40;;;5.20;99.90;;;;;;5040608;28;20199;-77
2021/12/10 12:17:05;;;;;;;3.57;0.97;;;5.30;99.90;;;;;;5056960;28;20261;-76
2021/12/10 12:19:31;;;;;;;3.60;0.90;;;5.30;99.90;;;;;;5055835;28;20207;-78
2021/12/10 12:22:17;;;;;;;3.20;1.37;;;5.20;99.90;;;;;;5037263;28;20258;-78
2021/12/10 12:25:08;;;;;;;4.87;1.50;;;5.30;99.90;;;;;;5042767;28;20198;-77
2021/12/10 12:27:33;;;;;;;8.43;1.47;;;5.30;99.90;;;;;;5038605;28;20207;-77
2021/12/10 12:30:04;;;;;;;3.93;1.50;;;5.30;99.90;;;;;;5056400;28;20255;-77
2021/12/10 12:32:36;;;;;;;5.73;1.10;;;5.30;99.90;;;;;;5057728;28;20156;-77
2021/12/10 12:35:20;;;;;;;4.17;1.20;;;5.30;99.90;;;;;;5037090;28;20569;-76
2021/12/10 12:37:46;;;;;;;4.90;1.37;;;5.40;99.90;;;;;;5057931;28;20199;-77
2021/12/10 12:40:12;;;;;;;5.30;1.23;;;5.30;99.90;;;;;;5055017;28;20232;-77
2021/12/10 12:42:45;;;;;;;2.40;0.90;;;5.30;99.90;;;;;;5057279;28;20176;-77
2021/12/10 12:45:23;;;;;;;4.10;1.20;;;5.30;99.90;;;;;;5054515;28;20245;-76
2021/12/10 12:47:52;;;;;;;4.83;1.53;;;5.40;99.90;;;;;;5052803;28;20203;-77
2021/12/10 12:50:28;;;;;;;4.80;1.33;;;5.40;99.90;;;;;;5052795;28;20279;-77
2021/12/10 12:53:01;;;;;;;3.63;1.20;;;5.40;99.90;;;;;;5038640;28;20187;-77
2021/12/10 12:56:07;;;;;;;6.23;1.20;;;5.30;99.90;;;;;;5039673;28;20655;-77
2021/12/10 12:58:39;;;;;;;2.30;1.30;;;5.40;99.90;;;;;;5055457;28;20651;-78
2021/12/10 13:01:20;;;;;;;2.93;1.20;;;5.40;99.90;;;;;;5053596;28;20180;-77
2021/12/10 13:04:00;;;;;;;3.07;1.33;;;5.40;99.90;;;;;;5036921;28;20191;-80
2021/12/10 13:06:32;;;;;;;2.60;1.03;;;5.40;99.90;;;;;;5039438;28;20183;-77
2021/12/10 13:09:05;;;;;;;4.40;1.40;;;5.40;99.90;;;;;;5052031;28;20600;-77
2021/12/10 13:11:52;;;;;;;3.07;1.70;;;5.40;99.90;;;;;;5053985;28;20534;-77
2021/12/10 13:14:21;;;;;;;2.50;1.00;;;5.40;99.90;;;;;;5037161;28;20191;-77
2021/12/10 13:17:12;;;;;;;3.23;1.50;;;5.40;99.90;;;;;;5036386;28;20188;-77
2021/12/10 13:19:38;;;;;;;4.57;1.20;;;5.40;99.90;;;;;;5054789;28;20218;-75